Impacts TAF Board INFO
FOR SITUATIONAL AWARENESS. NOT TO BE USED FOR FLIGHT PLANNING PURPOSES.
IDs:

KGTR - Golden Triangle Arpt, MS, US

Issued at 1720 UTC 23 May 2018
Updated at 2238 UTC 23 May 2018
Potential Impact None Slight Moderate High
Time<<24/11Z 24/12Z 24/13Z 24/14Z 24/15Z 24/16Z 24/17Z 24/18Z 24/19Z 24/20Z 24/21Z 24/22Z 24/23Z>>
Type PRVL PRVL PRVL PRVL PRVL PRVL PRVL
VIS 3 3 3 >6 >6 >6 >6
CIG -- -- -- -- -- -- --
Cover FEW FEW FEW SCT SCT SCT SCT
FltCat MVFR MVFR MVFR VFR VFR VFR VFR
WX BR BR BR -- -- -- --
WDir VRB VRB VRB 50 50 50 50
WSpd 0 0 0 3 3 3 3
WGst -- -- -- -- -- -- --

Raw TAF
KGTR 231720Z 2318/2418 31006KT P6SM SCT035 SCT250
  FM232000 07005KT P6SM VCTS BKN040CB BKN100
  FM240000 00000KT P6SM FEW100 SCT250
  FM241000 00000KT 3SM BR FEW250
  FM241400 05003KT P6SM SCT250


METAR Board
Radar Display
Forecast Discussion

FOR SITUATIONAL AWARENESS. NOT TO BE USED FOR FLIGHT PLANNING PURPOSES.